Ana Sayfa
METAR-TAF:

METAR-TAF

Havaalanları :

Loreto, Meksika

Enlem: 26-01N, Boylam: 111-21W, yükseklik: 15 m

Güncel hava durumu gözlemi

Rapor saat 15:53 UTC de 50 dakika önce yapıldı.
Rüzgar kuzey/kuzeydoğudan 6 kt
Sıcaklık 30°C
Nem 55%
Basınç 1011 hPa
Görüş mesafesi: 14.5 km
24000 ft yükseklikte parçalı bulutlu

METAR: MMLT 181553Z 03006KT 9SM SCT240 30/20 A2986 RMK 8/001 HZY

Saat: 10:43 (16:43 UTC)

Tahmin

Rapor saat 05:25 UTC de 11 saat ve 18 dakika önce yapıldı.
Ayın 18'si saat 06 UTC'den ayın 19'si saat 06 UTC'ye kadar geçerli Tahmin
Rüzgar güneydoğudan 8 kt
Görüş mesafesi: 10 km
Açık gökyüzü
Ayın 18'si saat 1800 UTC'den
Rüzgar güneydoğudan 10 kt
Görüş mesafesi: 10 km
Açık gökyüzü
Ayın 19'si saat 0400 UTC'den
Rüzgar güney/güneydoğudan 5 kt
Görüş mesafesi: 10 km
Açık gökyüzü

TAF: MMLT 180525Z 1806/1906 14008KT P6SM SKC FM181800 14010KT P6SM SKC FM190400 16005KT P6SM SKC

4.000'den fazla havaalanı için hava durumu gözlemleri ve tahminleri (METAR ve TAF raporları).

Kullanılabilir istasyonlar harita üzerinde sarı ve kırmızı noktalarla gösterilir.

İstasyonun adını görmek için fareyi noktanın üzerinde gezdirin.

Sonrasında hava gözlem ve tahminlerini görmek için tıklayın.

Haritayı değiştirmek için: yaklaştırmak için siyah artı işaretli yeşil düğmeye ve uzaklaştırmak için de eksi işaretli düğmeye hızla tıklayın; bitişik haritalar için yeşil okları kullanın.


METAR-TAF: